Thulani Grobler

Recruteur en chef - Bloemfontein Celtic
3 Déc 2028
Dimanche
Processus

Personnalité

Adaptabilité (6) Ambition (5) Controverse (2) Loyauté (17) Pression (9) Professionnalisme (19) Sportivité (6) Tempérament (15)

Profil

Style d'entraînement Démocratique
Diplôme Continental C
Détermination 10
Gestion des joueurs 6
Motivation 5
Discipline 10
Satisfaction professionnelle
100%
Fatigue
0%
Rôle Recruteur en chef
Salaire 32.5K p/s
Contrat 14.03.2030

Performance

Comportement Bon
Efficacité de l'entraînement
34%
Développement des joueurs
20%
Prévention des blessures
20%
Mise en place tactique
50%

Événements récents

A participé à une réunion de recrutement maintenant
A participé à une réunion de recrutement maintenant
A participé à une réunion de recrutement 7j
A participé à une réunion de recrutement 7j
A recommandé une cible de transfert 7j
A recommandé une cible de transfert 7j
A recommandé une cible de transfert 14j
A recommandé une cible de transfert 14j

Suivi en cours

138
Joueur Club Statut Capacité Confiance Observé Dernière observation Dernier vote
Monty Batlhabane Polokwane City Actif 111 / 114 30% 1 / 1m 29.11.2028 -
Ronaldo Maarman University of Pretoria Actif 121 / 121 56% 2 / 2m 06.09.2028 -
Evidence Mokoena Platinum Stars Actif 64 / 69 30% 1 / 1m 06.09.2028 -
Risen Albert University of Pretoria Actif 115 / 115 42% 1 / 1m 06.09.2028 -
Luciano Servín Bidvest Wits Actif 95 / 99 79% 1 28.08.2028 Approuver
Sifiso Mokotjo SuperSport United Actif 86 / 94 79% 1 14.08.2028 Approuver
Ryan Graydon Salford City Actif 101 / 103 40% 2 31.05.2028 -
Tyler Walton Bromley Actif 93 / 103 40% 1 31.05.2028 -
Brandon Thomas-Asante Blackpool Actif 129 / 123 40% 4 31.01.2028 -
Rocco Vata Watford Actif 131 / 123 40% 2 18.01.2028 -
Daniel Barrea Godoy Cruz Actif 118 / 126 40% 3 18.01.2028 -
Marco Miori Alvarado Actif 116 / 116 40% 2 18.01.2028 -
Aaron Collins Milton Keynes Dons Actif 123 / 114 40% 2 31.12.2027 -
Samuel Anakwe Remo Stars Actif 102 / 96 40% 6 31.12.2027 -
Ronaldo Peña Deportivo Lara Actif 106 / 95 40% 1 31.12.2027 -
Jay Stansfield Birmingham Actif 138 / 123 40% 3 30.12.2027 -
Auwalu Ali Malam Kano Pillars Actif 94 / 88 40% 2 30.12.2027 -
Yousef Salech Cardiff City Actif 131 / 123 40% 3 27.12.2027 -
Jonás Acevedo Instituto Actif 131 / 125 40% 2 26.12.2027 -
Juan Mendoza Güemes Actif 102 / 99 40% 3 26.12.2027 -
Sagir Arce Saburtalo Actif 104 / 102 40% 4 25.12.2027 -
Richard Koné Queens Park Rangers Actif 124 / 139 40% 3 25.12.2027 -
Umar Ada Nasarawa United Actif 92 / 91 40% 4 25.12.2027 -
Josephat Lopaga Kakamega Homeboyz Actif 88 / 96 40% 8 24.12.2027 -
Gianluca Pugliese Güemes Actif 117 / 100 40% 2 23.12.2027 -
Lisandro Cabrera Maipú Actif 104 / 123 40% 3 23.12.2027 -
Timothy Zechariah Rivers United Actif 104 / 104 40% 3 23.12.2027 -
Luca Franco Arsenal Actif 106 / 118 40% 4 20.12.2027 -
Ismail Sarki Niger Tornadoes Actif 102 / 101 40% 3 20.12.2027 -
Maclyn Biokpo Jenewari Rivers United Actif 101 / 101 40% 5 17.12.2027 -
César Magallan Estudiantes de Merida Actif 120 / 112 40% 2 14.12.2027 -
Chisom Orji Warri Wolves Actif 90 / 87 40% 7 14.12.2027 -
Matías Samaniego Talleres Actif 110 / 98 40% 1 14.12.2027 -
Rodrigo Bogarín Barracas Central Actif 114 / 122 40% 1 12.12.2027 -
Samson Olasupo Remo Stars Actif 104 / 105 40% 4 11.12.2027 -
Alejandro Rincon Llaneros Actif 101 / 94 40% 4 10.12.2027 -
Chukwuemeka Obioma Abia Warriors Actif 100 / 95 40% 4 10.12.2027 -
William Osula Wrexham Actif 135 / 133 40% 2 09.12.2027 -
Juan David Rueda Alianza Petrolera Actif 100 / 108 40% 2 08.12.2027 -
Stanley Amon Bayelsa United Actif 83 / 103 40% 8 08.12.2027 -
Favio Cabral Mitre Actif 110 / 122 40% 7 06.12.2027 -
Germán Cervera Alvarado Actif 94 / 101 40% 2 06.12.2027 -
Facundo Krüger Temperley Actif 120 / 104 40% 3 05.12.2027 -
Shuaibu Ibrahim Wikki Tourists Actif 96 / 86 40% 3 05.12.2027 -
José Balza Deportivo Tachira Actif 108 / 97 40% 1 05.12.2027 -
Augustine Nwaorisa Enyimba Actif 91 / 93 40% 3 04.12.2027 -
Enzo González Defensores Actif 117 / 101 40% 1 03.12.2027 -
Ibrahim Yahaya Barau Actif 82 / 84 40% 3 02.12.2027 -
Okardi Inikurogha Bayelsa United Actif 94 / 81 40% 3 02.12.2027 -
Lautaro Gordillo Colegiales Actif 102 / 114 40% 2 28.11.2027 -
José Barreto Quilmes Actif 106 / 106 40% 1 28.11.2027 -
Santiago Sala Güemes Actif 110 / 119 40% 3 25.11.2027 -
Augusto Berrondo Tristán Suárez Actif 107 / 116 40% 3 19.11.2027 -
Sebastián Cocimano Nueva Chicago Actif 114 / 118 40% 3 17.11.2027 -
Adalberto Peñaranda Deportivo Tachira Actif 122 / 118 40% 2 14.11.2027 -
Santiago Rodríguez Gimnasia y Esgrima Actif 116 / 117 40% 2 13.11.2027 -
James Emo Rangers International Actif 81 / 91 40% 1 08.11.2027 -
Abubakar Garba Nasarawa United Actif 87 / 101 40% 2 05.11.2027 -
Chineme Chinonso Ikorodu City Actif 99 / 88 40% 3 04.11.2027 -
Maren Kefas Plateau United Actif 104 / 101 40% 2 03.11.2027 -
Waheed Adebayo Rangers International Actif 85 / 90 40% 2 02.11.2027 -
Kingsley Maduforo Enyimba Actif 91 / 94 40% 3 25.10.2027 -
Mauricio Márquez Caracas Actif 116 / 109 40% 2 25.10.2027 -
Sergio Riffo Kolkheti Actif 90 / 96 40% 1 23.10.2027 -
Renzo Reynaga Patronato Actif 106 / 110 40% 1 23.10.2027 -
Tomás Fernández Aldosivi Actif 125 / 119 40% 1 22.10.2027 -
Alexander Díaz Deportivo Riestra Actif 126 / 126 40% 1 20.10.2027 -
Oke Kayode Bendel Insurance Actif 83 / 100 40% 1 06.10.2027 -
Prince Nxumalo Actif 103 / 103 52% 1 / 1m 08.09.2027 -
Aidomo Emakhu Oxford United Actif 136 / 118 40% 2 06.08.2027 -
Sam Bell Bristol City Actif 123 / 125 40% 3 06.08.2027 -
Matty Stevens AFC Wimbledon Actif 115 / 96 40% 4 05.08.2027 -
Elijah Adebayo Luton Town Actif 129 / 130 40% 2 05.08.2027 -
Josh Coburn Millwall Actif 125 / 116 40% 3 04.08.2027 -
Sam Nombe Milton Keynes Dons Actif 112 / 106 40% 3 03.08.2027 -
Stephen Humphrys Bradford City Actif 119 / 114 40% 3 03.08.2027 -
Marezi Portsmouth Actif 132 / 115 40% 2 26.07.2027 -
Sam Greenwood Bristol City Actif 127 / 117 40% 1 25.07.2027 -
Mees Rijks Bristol Rovers Actif 120 / 117 40% 1 24.07.2027 -
Brandon Hanlan Doncaster Rovers Actif 100 / 111 40% 3 23.07.2027 -
Christian Saydee Wigan Athletic Actif 122 / 116 40% 1 22.07.2027 -
Augustus Kargbo Blackburn Rovers Actif 111 / 119 40% 1 21.07.2027 -
Aaron Drinan Swindon Town Actif 116 / 93 40% 1 21.07.2027 -
Lorent Tolaj Plymouth Argyle Actif 130 / 122 40% 1 20.07.2027 -
Fábio Tavares Burton Albion Actif 102 / 111 40% 2 06.07.2027 -
Tyreece Campbell Charlton Athletic Actif 122 / 125 40% 1 28.06.2027 -
Hlompho Mkhize Black Aces Actif 97 / 106 40% 2 31.12.2026 -
Ryder Matos Hibernians Actif 97 / 85 40% 5 29.12.2026 -
Gbolahan Salami Actif 86 / 97 40% 2 29.12.2026 -
Damir Céter Hamrun Spartans Actif 105 / 96 40% 2 22.12.2026 -
Evidence Makgopa Orlando Pirates Actif 108 / 117 40% 4 17.12.2026 -
Robert Murić Floriana Actif 103 / 98 40% 2 16.12.2026 -
Jurgen Degabriele Hibernians Actif 84 / 81 40% 1 16.12.2026 -
Mohamed Konaté Akhmat Grozny Actif 108 / 114 40% 2 14.12.2026 -
Denzel Jubitana Neftchi Actif 120 / 122 40% 2 14.12.2026 -
Patrick Schmidt Tarxien Rainbows Actif 92 / 95 40% 2 11.12.2026 -
Fernandinho Sliema Wanderers Actif 95 / 86 40% 1 08.12.2026 -
Kagiso Malinga Jomo Cosmos Actif 100 / 95 40% 1 07.12.2026 -
Matej Poplatnik Actif 106 / 100 40% 3 03.12.2026 -
Etiosa Ighodaro Kaizer Chiefs Actif 117 / 111 40% 2 02.12.2026 -
Franklin Sasere Birkirkara Actif 87 / 103 40% 2 30.11.2026 -
Brayan Gil Baltika Actif 128 / 109 40% 1 29.11.2026 -
Uroš Đuranović Sliema Wanderers Actif 103 / 89 40% 3 25.11.2026 -
Miloš Jovičić Zabbar St. Patrick Actif 100 / 99 40% 1 20.11.2026 -
Ioannis Pittas CSKA Sofia Actif 122 / 118 40% 1 19.11.2026 -
Tio Cipot NK Maribor Actif 123 / 126 40% 1 15.11.2026 -
Daniel Udoh Salford City Actif 92 / 93 40% 2 13.11.2026 -
Bruno Gomes Valletta Actif 88 / 95 40% 2 13.11.2026 -
Armstrong Oko-Flex Levski Actif 116 / 123 40% 1 12.11.2026 -
Nikos Karelis Actif 107 / 103 40% 1 03.11.2026 -
Erick Dolly Black Aces Actif 104 / 111 40% 2 02.11.2026 Plus d'infos
Isaac Matondo Koper Actif 107 / 108 40% 1 02.11.2026 -
Marcus Browne AFC Wimbledon Actif 100 / 92 40% 1 30.10.2026 -
Kekuta Manneh Samtredia Actif 82 / 83 40% 2 28.10.2026 -
Samuel Ayanrinde KCB Actif 91 / 86 40% 1 27.10.2026 -
Bongani Khune SuperSport United Actif 127 / 130 40% 5 25.10.2026 -
Elliot Collier Saburtalo Actif 108 / 86 40% 2 25.10.2026 -
Peter Shalulile Mamelodi Sundowns Actif 129 / 138 40% 7 24.10.2026 -
Hakeeb Adelakun Doncaster Rovers Actif 101 / 109 40% 2 16.10.2026 -
Will Davies Fleetwood Town Actif 102 / 103 40% 2 15.10.2026 -
Alassana Jatta Notts County Actif 94 / 114 40% 1 15.10.2026 -
Hansel Ochieng APS Bomet Actif 73 / 76 40% 1 07.10.2026 -
Paul Glatzel Swindon Town Actif 88 / 91 40% 2 05.10.2026 -
Tyshick Mosengo Kenya Police Actif 88 / 74 40% 1 21.09.2026 -
Israel Emmanuel Hamrun Spartans Actif 82 / 91 40% 1 17.09.2026 -
Ramiro Ruiz Rodríguez Atlético Tucumán Actif 131 / 114 40% 1 16.09.2026 -
Will Dickson Chesterfield Actif 97 / 93 40% 1 16.09.2026 -
Paul Mbong Floriana Actif 100 / 84 40% 1 11.09.2026 -
Louie Marsh Sheffield United Actif 103 / 90 40% 1 09.09.2026 -
Enosh Ochieng Actif 83 / 86 40% 1 08.09.2026 -
Eric Kapaito Tusker Actif 91 / 89 40% 1 08.09.2026 -
Clinton Omondi Ulinzi Stars Actif 76 / 84 40% 1 07.09.2026 -
David Sakwa Bandari Actif 72 / 75 40% 1 07.09.2026 -
Lebo Mothiba Mamelodi Sundowns Actif 119 / 111 40% 1 07.09.2026 -
James Norwood Actif 68 / 91 40% 1 25.08.2026 -
Tomáš Souček West Ham United Actif 142 / 129 40% 1 01.08.2026 -
Dwight McNeil Crystal Palace Actif 140 / 149 40% 1 01.08.2026 -
Elliot Lee Wrexham Actif 101 / 121 40% 1 01.08.2026 -